sensor_id;sensor_type;location;lat;lon;timestamp;P1;durP1;ratioP1;P2;durP2;ratioP2
18752;SDS011;9505;50.882;5.350;2023-06-19T00:00:10;35.78;;;6.57;;
18752;SDS011;9505;50.882;5.350;2023-06-19T00:02:42;33.80;;;6.25;;
18752;SDS011;9505;50.882;5.350;2023-06-19T00:05:08;32.05;;;5.95;;
18752;SDS011;9505;50.882;5.350;2023-06-19T00:07:37;30.10;;;5.60;;
18752;SDS011;9505;50.882;5.350;2023-06-19T00:10:04;30.20;;;6.07;;
18752;SDS011;9505;50.882;5.350;2023-06-19T00:12:30;30.13;;;5.50;;
18752;SDS011;9505;50.882;5.350;2023-06-19T00:14:55;28.52;;;5.50;;
18752;SDS011;9505;50.882;5.350;2023-06-19T00:17:21;33.05;;;6.10;;
18752;SDS011;9505;50.882;5.350;2023-06-19T00:19:50;28.15;;;5.85;;
18752;SDS011;9505;50.882;5.350;2023-06-19T00:22:16;33.25;;;6.13;;
18752;SDS011;9505;50.882;5.350;2023-06-19T00:24:42;33.08;;;6.00;;
18752;SDS011;9505;50.882;5.350;2023-06-19T00:27:07;30.00;;;6.28;;
18752;SDS011;9505;50.882;5.350;2023-06-19T00:29:33;30.20;;;5.82;;
18752;SDS011;9505;50.882;5.350;2023-06-19T00:31:59;26.45;;;5.10;;
18752;SDS011;9505;50.882;5.350;2023-06-19T00:34:25;35.08;;;6.05;;
18752;SDS011;9505;50.882;5.350;2023-06-19T00:36:51;26.98;;;5.45;;
18752;SDS011;9505;50.882;5.350;2023-06-19T00:39:21;34.30;;;6.22;;
18752;SDS011;9505;50.882;5.350;2023-06-19T00:41:47;30.45;;;6.05;;
18752;SDS011;9505;50.882;5.350;2023-06-19T00:44:14;28.42;;;5.38;;
18752;SDS011;9505;50.882;5.350;2023-06-19T00:46:40;29.42;;;5.90;;
18752;SDS011;9505;50.882;5.350;2023-06-19T00:49:06;27.98;;;5.53;;
18752;SDS011;9505;50.882;5.350;2023-06-19T00:51:33;34.00;;;6.65;;
18752;SDS011;9505;50.882;5.350;2023-06-19T00:53:59;33.38;;;5.80;;
18752;SDS011;9505;50.882;5.350;2023-06-19T00:56:25;23.35;;;5.43;;
18752;SDS011;9505;50.882;5.350;2023-06-19T00:58:51;29.55;;;5.95;;
18752;SDS011;9505;50.882;5.350;2023-06-19T01:01:19;31.45;;;5.97;;
18752;SDS011;9505;50.882;5.350;2023-06-19T01:03:46;30.88;;;6.18;;
18752;SDS011;9505;50.882;5.350;2023-06-19T01:06:16;30.00;;;5.85;;
18752;SDS011;9505;50.882;5.350;2023-06-19T01:08:59;30.85;;;5.65;;
18752;SDS011;9505;50.882;5.350;2023-06-19T01:11:31;31.40;;;5.80;;
18752;SDS011;9505;50.882;5.350;2023-06-19T01:14:01;30.05;;;5.57;;
18752;SDS011;9505;50.882;5.350;2023-06-19T01:16:33;27.63;;;4.90;;
18752;SDS011;9505;50.882;5.350;2023-06-19T01:18:59;35.35;;;6.07;;
18752;SDS011;9505;50.882;5.350;2023-06-19T01:21:25;29.50;;;5.55;;
18752;SDS011;9505;50.882;5.350;2023-06-19T01:23:51;28.98;;;5.72;;
18752;SDS011;9505;50.882;5.350;2023-06-19T01:26:17;29.92;;;5.93;;
18752;SDS011;9505;50.882;5.350;2023-06-19T01:28:45;36.78;;;6.47;;
18752;SDS011;9505;50.882;5.350;2023-06-19T01:31:13;28.27;;;5.20;;
18752;SDS011;9505;50.882;5.350;2023-06-19T01:33:44;33.28;;;5.93;;
18752;SDS011;9505;50.882;5.350;2023-06-19T01:36:11;30.50;;;5.40;;
18752;SDS011;9505;50.882;5.350;2023-06-19T01:38:37;27.23;;;5.13;;
18752;SDS011;9505;50.882;5.350;2023-06-19T01:41:04;29.38;;;5.72;;
18752;SDS011;9505;50.882;5.350;2023-06-19T01:43:31;30.38;;;5.57;;
18752;SDS011;9505;50.882;5.350;2023-06-19T01:45:58;30.83;;;5.65;;
18752;SDS011;9505;50.882;5.350;2023-06-19T01:48:24;28.88;;;5.43;;
18752;SDS011;9505;50.882;5.350;2023-06-19T01:50:50;32.47;;;5.90;;
18752;SDS011;9505;50.882;5.350;2023-06-19T01:53:16;32.47;;;5.82;;
18752;SDS011;9505;50.882;5.350;2023-06-19T01:55:42;26.48;;;4.93;;
18752;SDS011;9505;50.882;5.350;2023-06-19T01:58:08;28.85;;;5.85;;
18752;SDS011;9505;50.882;5.350;2023-06-19T02:00:33;29.80;;;5.40;;
18752;SDS011;9505;50.882;5.350;2023-06-19T02:03:02;31.25;;;5.53;;
18752;SDS011;9505;50.882;5.350;2023-06-19T02:05:29;29.60;;;5.53;;
18752;SDS011;9505;50.882;5.350;2023-06-19T02:07:55;38.67;;;6.10;;
18752;SDS011;9505;50.882;5.350;2023-06-19T02:10:21;27.23;;;5.22;;
18752;SDS011;9505;50.882;5.350;2023-06-19T02:12:47;29.75;;;5.20;;
18752;SDS011;9505;50.882;5.350;2023-06-19T02:15:13;30.92;;;5.35;;
18752;SDS011;9505;50.882;5.350;2023-06-19T02:17:38;36.75;;;5.78;;
18752;SDS011;9505;50.882;5.350;2023-06-19T02:20:04;29.55;;;4.97;;
18752;SDS011;9505;50.882;5.350;2023-06-19T02:22:34;21.88;;;4.47;;
18752;SDS011;9505;50.882;5.350;2023-06-19T02:25:00;30.15;;;5.47;;
18752;SDS011;9505;50.882;5.350;2023-06-19T02:27:25;32.83;;;5.47;;
18752;SDS011;9505;50.882;5.350;2023-06-19T02:29:51;27.75;;;5.10;;
18752;SDS011;9505;50.882;5.350;2023-06-19T02:32:16;29.70;;;5.50;;
18752;SDS011;9505;50.882;5.350;2023-06-19T02:34:42;33.33;;;5.65;;
18752;SDS011;9505;50.882;5.350;2023-06-19T02:37:07;28.42;;;5.38;;
18752;SDS011;9505;50.882;5.350;2023-06-19T02:39:33;27.88;;;5.38;;
18752;SDS011;9505;50.882;5.350;2023-06-19T02:41:59;30.77;;;5.55;;
18752;SDS011;9505;50.882;5.350;2023-06-19T02:44:25;29.75;;;5.20;;
18752;SDS011;9505;50.882;5.350;2023-06-19T02:46:50;31.05;;;5.78;;
18752;SDS011;9505;50.882;5.350;2023-06-19T02:49:16;33.45;;;5.80;;
18752;SDS011;9505;50.882;5.350;2023-06-19T02:51:41;32.75;;;6.35;;
18752;SDS011;9505;50.882;5.350;2023-06-19T02:54:07;27.00;;;5.07;;
18752;SDS011;9505;50.882;5.350;2023-06-19T02:56:33;21.67;;;4.70;;
18752;SDS011;9505;50.882;5.350;2023-06-19T02:58:58;25.65;;;5.00;;
18752;SDS011;9505;50.882;5.350;2023-06-19T03:01:24;25.58;;;5.13;;
18752;SDS011;9505;50.882;5.350;2023-06-19T03:03:50;23.58;;;4.95;;
18752;SDS011;9505;50.882;5.350;2023-06-19T03:06:17;25.10;;;4.80;;
18752;SDS011;9505;50.882;5.350;2023-06-19T03:08:43;24.27;;;5.13;;
18752;SDS011;9505;50.882;5.350;2023-06-19T03:11:09;24.73;;;5.18;;
18752;SDS011;9505;50.882;5.350;2023-06-19T03:13:46;23.42;;;4.93;;
18752;SDS011;9505;50.882;5.350;2023-06-19T03:16:13;28.15;;;5.28;;
18752;SDS011;9505;50.882;5.350;2023-06-19T03:18:44;33.38;;;5.68;;
18752;SDS011;9505;50.882;5.350;2023-06-19T03:21:11;27.70;;;5.60;;
18752;SDS011;9505;50.882;5.350;2023-06-19T03:23:37;25.85;;;5.57;;
18752;SDS011;9505;50.882;5.350;2023-06-19T03:26:02;25.77;;;5.30;;
18752;SDS011;9505;50.882;5.350;2023-06-19T03:28:28;28.98;;;5.95;;
18752;SDS011;9505;50.882;5.350;2023-06-19T03:30:54;26.65;;;5.75;;
18752;SDS011;9505;50.882;5.350;2023-06-19T03:33:19;30.27;;;6.35;;
18752;SDS011;9505;50.882;5.350;2023-06-19T03:35:45;25.35;;;5.97;;
18752;SDS011;9505;50.882;5.350;2023-06-19T03:38:11;25.52;;;5.57;;
18752;SDS011;9505;50.882;5.350;2023-06-19T03:40:36;27.50;;;6.43;;
18752;SDS011;9505;50.882;5.350;2023-06-19T03:43:02;26.08;;;6.40;;
18752;SDS011;9505;50.882;5.350;2023-06-19T03:45:27;32.22;;;7.18;;
18752;SDS011;9505;50.882;5.350;2023-06-19T03:47:53;28.35;;;6.57;;
18752;SDS011;9505;50.882;5.350;2023-06-19T03:50:19;27.38;;;7.32;;
18752;SDS011;9505;50.882;5.350;2023-06-19T03:52:44;29.27;;;7.07;;
18752;SDS011;9505;50.882;5.350;2023-06-19T03:55:10;27.80;;;7.28;;
18752;SDS011;9505;50.882;5.350;2023-06-19T03:57:35;38.33;;;8.13;;
18752;SDS011;9505;50.882;5.350;2023-06-19T04:00:01;29.98;;;8.13;;
18752;SDS011;9505;50.882;5.350;2023-06-19T04:02:32;29.48;;;8.35;;
18752;SDS011;9505;50.882;5.350;2023-06-19T04:04:58;29.80;;;7.85;;
18752;SDS011;9505;50.882;5.350;2023-06-19T04:07:23;40.03;;;8.80;;
18752;SDS011;9505;50.882;5.350;2023-06-19T04:09:49;37.90;;;8.35;;
18752;SDS011;9505;50.882;5.350;2023-06-19T04:12:15;35.22;;;8.23;;
18752;SDS011;9505;50.882;5.350;2023-06-19T04:14:40;35.75;;;8.63;;
18752;SDS011;9505;50.882;5.350;2023-06-19T04:17:06;34.15;;;8.25;;
18752;SDS011;9505;50.882;5.350;2023-06-19T04:19:31;31.13;;;7.97;;
18752;SDS011;9505;50.882;5.350;2023-06-19T04:21:57;25.83;;;6.68;;
18752;SDS011;9505;50.882;5.350;2023-06-19T04:24:23;31.35;;;7.43;;
18752;SDS011;9505;50.882;5.350;2023-06-19T04:26:48;36.45;;;8.25;;
18752;SDS011;9505;50.882;5.350;2023-06-19T04:29:14;28.75;;;6.53;;
18752;SDS011;9505;50.882;5.350;2023-06-19T04:31:45;35.08;;;7.65;;
18752;SDS011;9505;50.882;5.350;2023-06-19T04:34:15;29.13;;;6.43;;
18752;SDS011;9505;50.882;5.350;2023-06-19T04:36:42;29.08;;;7.05;;
18752;SDS011;9505;50.882;5.350;2023-06-19T04:39:08;26.35;;;6.25;;
18752;SDS011;9505;50.882;5.350;2023-06-19T04:41:34;29.35;;;7.03;;
18752;SDS011;9505;50.882;5.350;2023-06-19T04:44:06;22.33;;;7.13;;
18752;SDS011;9505;50.882;5.350;2023-06-19T04:46:33;26.00;;;7.50;;
18752;SDS011;9505;50.882;5.350;2023-06-19T04:48:59;31.42;;;7.85;;
18752;SDS011;9505;50.882;5.350;2023-06-19T04:51:24;24.30;;;7.63;;
18752;SDS011;9505;50.882;5.350;2023-06-19T04:53:51;25.85;;;7.53;;
18752;SDS011;9505;50.882;5.350;2023-06-19T04:56:17;24.30;;;7.40;;
18752;SDS011;9505;50.882;5.350;2023-06-19T04:58:43;32.92;;;8.25;;
18752;SDS011;9505;50.882;5.350;2023-06-19T05:01:12;24.65;;;7.50;;
18752;SDS011;9505;50.882;5.350;2023-06-19T05:03:39;32.22;;;8.55;;
18752;SDS011;9505;50.882;5.350;2023-06-19T05:06:05;25.77;;;7.97;;
18752;SDS011;9505;50.882;5.350;2023-06-19T05:08:30;42.38;;;9.88;;
18752;SDS011;9505;50.882;5.350;2023-06-19T05:10:56;31.02;;;8.55;;
18752;SDS011;9505;50.882;5.350;2023-06-19T05:13:23;28.27;;;8.02;;
18752;SDS011;9505;50.882;5.350;2023-06-19T05:15:49;31.73;;;8.88;;
18752;SDS011;9505;50.882;5.350;2023-06-19T05:18:18;29.65;;;8.07;;
18752;SDS011;9505;50.882;5.350;2023-06-19T05:20:43;41.83;;;10.27;;
18752;SDS011;9505;50.882;5.350;2023-06-19T05:23:09;29.33;;;8.02;;
18752;SDS011;9505;50.882;5.350;2023-06-19T05:25:35;39.75;;;10.10;;
18752;SDS011;9505;50.882;5.350;2023-06-19T05:28:01;28.88;;;8.52;;
18752;SDS011;9505;50.882;5.350;2023-06-19T05:30:26;34.42;;;8.52;;
18752;SDS011;9505;50.882;5.350;2023-06-19T05:32:52;37.70;;;8.27;;
18752;SDS011;9505;50.882;5.350;2023-06-19T05:35:18;37.22;;;9.02;;
18752;SDS011;9505;50.882;5.350;2023-06-19T05:37:43;33.83;;;8.18;;
18752;SDS011;9505;50.882;5.350;2023-06-19T05:40:10;27.65;;;7.20;;
18752;SDS011;9505;50.882;5.350;2023-06-19T05:42:36;29.48;;;7.20;;
18752;SDS011;9505;50.882;5.350;2023-06-19T05:45:02;33.35;;;7.70;;
18752;SDS011;9505;50.882;5.350;2023-06-19T05:47:29;30.63;;;6.93;;
18752;SDS011;9505;50.882;5.350;2023-06-19T05:49:55;32.00;;;7.40;;
18752;SDS011;9505;50.882;5.350;2023-06-19T05:52:21;27.20;;;5.97;;
18752;SDS011;9505;50.882;5.350;2023-06-19T05:54:47;29.70;;;6.55;;
18752;SDS011;9505;50.882;5.350;2023-06-19T05:57:13;27.70;;;6.00;;
18752;SDS011;9505;50.882;5.350;2023-06-19T05:59:41;30.20;;;6.15;;
18752;SDS011;9505;50.882;5.350;2023-06-19T06:02:07;27.38;;;5.85;;
18752;SDS011;9505;50.882;5.350;2023-06-19T06:04:33;46.65;;;7.93;;
18752;SDS011;9505;50.882;5.350;2023-06-19T06:07:02;31.30;;;6.07;;
18752;SDS011;9505;50.882;5.350;2023-06-19T06:09:27;37.50;;;7.22;;
18752;SDS011;9505;50.882;5.350;2023-06-19T06:11:53;29.55;;;6.00;;
18752;SDS011;9505;50.882;5.350;2023-06-19T06:14:19;31.80;;;6.15;;
18752;SDS011;9505;50.882;5.350;2023-06-19T06:16:44;38.30;;;7.13;;
18752;SDS011;9505;50.882;5.350;2023-06-19T06:19:10;30.52;;;6.63;;
18752;SDS011;9505;50.882;5.350;2023-06-19T06:21:36;34.58;;;6.68;;
18752;SDS011;9505;50.882;5.350;2023-06-19T06:24:02;33.08;;;6.90;;
18752;SDS011;9505;50.882;5.350;2023-06-19T06:26:27;29.05;;;6.47;;
18752;SDS011;9505;50.882;5.350;2023-06-19T06:28:53;35.35;;;7.35;;
18752;SDS011;9505;50.882;5.350;2023-06-19T06:31:20;32.72;;;6.43;;
18752;SDS011;9505;50.882;5.350;2023-06-19T06:33:47;33.95;;;6.65;;
18752;SDS011;9505;50.882;5.350;2023-06-19T06:36:14;35.35;;;7.40;;
18752;SDS011;9505;50.882;5.350;2023-06-19T06:38:40;47.78;;;8.43;;
18752;SDS011;9505;50.882;5.350;2023-06-19T06:41:05;43.70;;;7.78;;
18752;SDS011;9505;50.882;5.350;2023-06-19T06:43:31;36.08;;;7.00;;
18752;SDS011;9505;50.882;5.350;2023-06-19T06:45:57;35.42;;;7.03;;
18752;SDS011;9505;50.882;5.350;2023-06-19T06:48:23;38.80;;;7.07;;
18752;SDS011;9505;50.882;5.350;2023-06-19T06:50:49;43.25;;;8.05;;
18752;SDS011;9505;50.882;5.350;2023-06-19T06:53:14;45.38;;;8.13;;
18752;SDS011;9505;50.882;5.350;2023-06-19T06:55:40;59.78;;;8.73;;
18752;SDS011;9505;50.882;5.350;2023-06-19T06:58:05;42.72;;;7.25;;
18752;SDS011;9505;50.882;5.350;2023-06-19T07:00:31;55.15;;;8.70;;
18752;SDS011;9505;50.882;5.350;2023-06-19T07:02:56;40.72;;;6.57;;
18752;SDS011;9505;50.882;5.350;2023-06-19T07:05:22;34.60;;;6.97;;
18752;SDS011;9505;50.882;5.350;2023-06-19T07:07:49;38.97;;;7.20;;
18752;SDS011;9505;50.882;5.350;2023-06-19T07:10:15;31.25;;;6.63;;
18752;SDS011;9505;50.882;5.350;2023-06-19T07:12:47;34.95;;;6.82;;
18752;SDS011;9505;50.882;5.350;2023-06-19T07:15:13;30.48;;;6.82;;
18752;SDS011;9505;50.882;5.350;2023-06-19T07:17:39;37.95;;;8.00;;
18752;SDS011;9505;50.882;5.350;2023-06-19T07:20:04;39.10;;;8.10;;
18752;SDS011;9505;50.882;5.350;2023-06-19T07:22:31;34.92;;;7.45;;
18752;SDS011;9505;50.882;5.350;2023-06-19T07:24:57;48.60;;;8.85;;
18752;SDS011;9505;50.882;5.350;2023-06-19T07:27:23;35.05;;;7.32;;
18752;SDS011;9505;50.882;5.350;2023-06-19T07:29:52;33.45;;;6.90;;
18752;SDS011;9505;50.882;5.350;2023-06-19T07:32:18;37.83;;;7.35;;
18752;SDS011;9505;50.882;5.350;2023-06-19T07:34:44;41.13;;;7.55;;
18752;SDS011;9505;50.882;5.350;2023-06-19T07:37:10;35.03;;;7.30;;
18752;SDS011;9505;50.882;5.350;2023-06-19T07:39:42;32.35;;;6.65;;
18752;SDS011;9505;50.882;5.350;2023-06-19T07:42:18;37.78;;;7.25;;
18752;SDS011;9505;50.882;5.350;2023-06-19T07:44:44;38.30;;;7.13;;
18752;SDS011;9505;50.882;5.350;2023-06-19T07:47:10;31.30;;;6.88;;
18752;SDS011;9505;50.882;5.350;2023-06-19T07:49:36;35.53;;;7.05;;
18752;SDS011;9505;50.882;5.350;2023-06-19T07:52:02;41.25;;;8.25;;
18752;SDS011;9505;50.882;5.350;2023-06-19T07:54:29;44.65;;;8.13;;
18752;SDS011;9505;50.882;5.350;2023-06-19T07:56:54;43.47;;;7.60;;
18752;SDS011;9505;50.882;5.350;2023-06-19T07:59:21;34.72;;;6.97;;
18752;SDS011;9505;50.882;5.350;2023-06-19T08:01:47;44.17;;;8.45;;
18752;SDS011;9505;50.882;5.350;2023-06-19T08:04:13;33.70;;;7.20;;
18752;SDS011;9505;50.882;5.350;2023-06-19T08:06:39;39.08;;;8.23;;
18752;SDS011;9505;50.882;5.350;2023-06-19T08:09:04;30.23;;;6.35;;
18752;SDS011;9505;50.882;5.350;2023-06-19T08:11:30;34.63;;;7.55;;
18752;SDS011;9505;50.882;5.350;2023-06-19T08:13:55;40.90;;;7.75;;
18752;SDS011;9505;50.882;5.350;2023-06-19T08:16:21;35.20;;;7.00;;
18752;SDS011;9505;50.882;5.350;2023-06-19T08:18:47;39.88;;;7.47;;
18752;SDS011;9505;50.882;5.350;2023-06-19T08:21:12;32.17;;;6.45;;
18752;SDS011;9505;50.882;5.350;2023-06-19T08:23:38;41.95;;;7.38;;
18752;SDS011;9505;50.882;5.350;2023-06-19T08:26:05;32.90;;;5.97;;
18752;SDS011;9505;50.882;5.350;2023-06-19T08:28:32;42.65;;;6.65;;
18752;SDS011;9505;50.882;5.350;2023-06-19T08:30:57;40.67;;;6.90;;
18752;SDS011;9505;50.882;5.350;2023-06-19T08:33:23;32.88;;;6.03;;
18752;SDS011;9505;50.882;5.350;2023-06-19T08:35:49;38.60;;;6.68;;
18752;SDS011;9505;50.882;5.350;2023-06-19T08:38:14;32.63;;;6.53;;
18752;SDS011;9505;50.882;5.350;2023-06-19T08:40:43;34.25;;;6.30;;
18752;SDS011;9505;50.882;5.350;2023-06-19T08:43:09;31.80;;;6.03;;
18752;SDS011;9505;50.882;5.350;2023-06-19T08:45:35;33.60;;;6.47;;
18752;SDS011;9505;50.882;5.350;2023-06-19T08:48:01;40.40;;;7.80;;
18752;SDS011;9505;50.882;5.350;2023-06-19T08:50:32;36.03;;;6.70;;
18752;SDS011;9505;50.882;5.350;2023-06-19T08:52:58;49.15;;;7.90;;
18752;SDS011;9505;50.882;5.350;2023-06-19T08:55:23;31.73;;;5.88;;
18752;SDS011;9505;50.882;5.350;2023-06-19T08:57:50;38.80;;;6.88;;
18752;SDS011;9505;50.882;5.350;2023-06-19T09:00:24;43.45;;;7.57;;
18752;SDS011;9505;50.882;5.350;2023-06-19T09:02:50;33.00;;;6.03;;
18752;SDS011;9505;50.882;5.350;2023-06-19T09:05:18;46.35;;;7.97;;
18752;SDS011;9505;50.882;5.350;2023-06-19T09:07:44;34.50;;;6.90;;
18752;SDS011;9505;50.882;5.350;2023-06-19T09:10:19;32.30;;;6.68;;
18752;SDS011;9505;50.882;5.350;2023-06-19T09:12:57;38.13;;;7.32;;
18752;SDS011;9505;50.882;5.350;2023-06-19T09:15:26;34.83;;;6.68;;
18752;SDS011;9505;50.882;5.350;2023-06-19T09:18:06;38.88;;;7.20;;
18752;SDS011;9505;50.882;5.350;2023-06-19T09:20:36;36.70;;;7.00;;
18752;SDS011;9505;50.882;5.350;2023-06-19T09:23:05;37.60;;;6.85;;
18752;SDS011;9505;50.882;5.350;2023-06-19T09:25:30;37.00;;;7.55;;
18752;SDS011;9505;50.882;5.350;2023-06-19T09:27:56;33.83;;;6.47;;
18752;SDS011;9505;50.882;5.350;2023-06-19T09:30:22;38.72;;;6.93;;
18752;SDS011;9505;50.882;5.350;2023-06-19T09:32:48;38.42;;;6.93;;
18752;SDS011;9505;50.882;5.350;2023-06-19T09:35:14;36.42;;;7.05;;
18752;SDS011;9505;50.882;5.350;2023-06-19T09:37:40;43.80;;;7.05;;
18752;SDS011;9505;50.882;5.350;2023-06-19T09:40:06;42.17;;;7.00;;
18752;SDS011;9505;50.882;5.350;2023-06-19T09:42:42;39.58;;;7.20;;
18752;SDS011;9505;50.882;5.350;2023-06-19T09:45:09;45.60;;;7.45;;
18752;SDS011;9505;50.882;5.350;2023-06-19T09:47:43;39.88;;;7.07;;
18752;SDS011;9505;50.882;5.350;2023-06-19T09:50:13;39.47;;;6.93;;
18752;SDS011;9505;50.882;5.350;2023-06-19T09:52:41;42.92;;;7.43;;
18752;SDS011;9505;50.882;5.350;2023-06-19T09:55:07;45.53;;;7.10;;
18752;SDS011;9505;50.882;5.350;2023-06-19T09:57:35;51.15;;;7.40;;
18752;SDS011;9505;50.882;5.350;2023-06-19T10:00:03;38.15;;;7.00;;
18752;SDS011;9505;50.882;5.350;2023-06-19T10:02:54;36.03;;;6.68;;
18752;SDS011;9505;50.882;5.350;2023-06-19T10:05:29;35.20;;;7.20;;
18752;SDS011;9505;50.882;5.350;2023-06-19T10:07:56;41.38;;;7.50;;
18752;SDS011;9505;50.882;5.350;2023-06-19T10:10:26;39.75;;;7.00;;
18752;SDS011;9505;50.882;5.350;2023-06-19T10:12:57;37.88;;;7.40;;
18752;SDS011;9505;50.882;5.350;2023-06-19T10:15:24;29.17;;;6.13;;
18752;SDS011;9505;50.882;5.350;2023-06-19T10:20:25;34.65;;;7.07;;
18752;SDS011;9505;50.882;5.350;2023-06-19T10:22:56;34.17;;;7.38;;
18752;SDS011;9505;50.882;5.350;2023-06-19T10:25:32;37.42;;;7.00;;
18752;SDS011;9505;50.882;5.350;2023-06-19T10:33:18;28.50;;;6.43;;
18752;SDS011;9505;50.882;5.350;2023-06-19T10:35:44;43.85;;;8.02;;
18752;SDS011;9505;50.882;5.350;2023-06-19T10:38:09;35.58;;;7.07;;
18752;SDS011;9505;50.882;5.350;2023-06-19T10:40:36;33.63;;;6.90;;
18752;SDS011;9505;50.882;5.350;2023-06-19T10:43:02;35.03;;;7.30;;
18752;SDS011;9505;50.882;5.350;2023-06-19T10:45:29;33.30;;;6.85;;
18752;SDS011;9505;50.882;5.350;2023-06-19T10:47:55;36.60;;;8.15;;
18752;SDS011;9505;50.882;5.350;2023-06-19T10:50:21;31.52;;;6.60;;
18752;SDS011;9505;50.882;5.350;2023-06-19T10:52:48;33.00;;;7.25;;
18752;SDS011;9505;50.882;5.350;2023-06-19T10:55:17;36.00;;;7.53;;
18752;SDS011;9505;50.882;5.350;2023-06-19T10:57:46;36.10;;;7.50;;
18752;SDS011;9505;50.882;5.350;2023-06-19T11:00:33;62.47;;;10.45;;
18752;SDS011;9505;50.882;5.350;2023-06-19T11:02:59;29.00;;;6.80;;
18752;SDS011;9505;50.882;5.350;2023-06-19T11:05:25;34.33;;;7.40;;
18752;SDS011;9505;50.882;5.350;2023-06-19T11:07:53;31.42;;;7.28;;
18752;SDS011;9505;50.882;5.350;2023-06-19T11:10:23;33.53;;;7.15;;
18752;SDS011;9505;50.882;5.350;2023-06-19T11:12:53;35.17;;;7.30;;
18752;SDS011;9505;50.882;5.350;2023-06-19T11:15:20;42.25;;;8.40;;
18752;SDS011;9505;50.882;5.350;2023-06-19T11:17:52;36.88;;;7.57;;
18752;SDS011;9505;50.882;5.350;2023-06-19T11:20:18;38.03;;;8.10;;
18752;SDS011;9505;50.882;5.350;2023-06-19T11:22:44;30.50;;;6.90;;
18752;SDS011;9505;50.882;5.350;2023-06-19T11:25:09;32.05;;;7.28;;
18752;SDS011;9505;50.882;5.350;2023-06-19T11:27:37;39.38;;;7.47;;
18752;SDS011;9505;50.882;5.350;2023-06-19T11:30:04;36.38;;;7.22;;
18752;SDS011;9505;50.882;5.350;2023-06-19T11:32:38;40.83;;;8.13;;
18752;SDS011;9505;50.882;5.350;2023-06-19T11:35:10;44.30;;;8.75;;
18752;SDS011;9505;50.882;5.350;2023-06-19T11:37:39;33.90;;;7.18;;
18752;SDS011;9505;50.882;5.350;2023-06-19T11:40:06;28.88;;;6.60;;
18752;SDS011;9505;50.882;5.350;2023-06-19T11:43:10;30.98;;;7.10;;
18752;SDS011;9505;50.882;5.350;2023-06-19T11:45:29;28.13;;;7.05;;
18752;SDS011;9505;50.882;5.350;2023-06-19T11:47:54;31.25;;;7.28;;
18752;SDS011;9505;50.882;5.350;2023-06-19T11:50:26;29.83;;;7.07;;
18752;SDS011;9505;50.882;5.350;2023-06-19T11:52:52;33.03;;;7.50;;
18752;SDS011;9505;50.882;5.350;2023-06-19T11:55:18;28.90;;;7.30;;
18752;SDS011;9505;50.882;5.350;2023-06-19T11:57:43;22.58;;;6.47;;
18752;SDS011;9505;50.882;5.350;2023-06-19T12:00:15;37.92;;;8.45;;
18752;SDS011;9505;50.882;5.350;2023-06-19T12:02:43;34.38;;;7.50;;
18752;SDS011;9505;50.882;5.350;2023-06-19T12:05:09;36.33;;;7.78;;
18752;SDS011;9505;50.882;5.350;2023-06-19T12:07:35;44.67;;;9.02;;
18752;SDS011;9505;50.882;5.350;2023-06-19T12:10:02;29.80;;;7.40;;
18752;SDS011;9505;50.882;5.350;2023-06-19T12:12:29;33.10;;;7.82;;
18752;SDS011;9505;50.882;5.350;2023-06-19T12:14:55;36.45;;;8.40;;
18752;SDS011;9505;50.882;5.350;2023-06-19T12:17:21;40.85;;;8.25;;
18752;SDS011;9505;50.882;5.350;2023-06-19T12:19:47;48.42;;;8.82;;
18752;SDS011;9505;50.882;5.350;2023-06-19T12:22:13;64.53;;;11.65;;
18752;SDS011;9505;50.882;5.350;2023-06-19T12:24:39;46.42;;;8.77;;
18752;SDS011;9505;50.882;5.350;2023-06-19T12:27:04;36.67;;;7.70;;
18752;SDS011;9505;50.882;5.350;2023-06-19T12:29:30;42.50;;;8.57;;
18752;SDS011;9505;50.882;5.350;2023-06-19T12:31:59;53.08;;;10.30;;
18752;SDS011;9505;50.882;5.350;2023-06-19T12:34:26;63.03;;;11.48;;
18752;SDS011;9505;50.882;5.350;2023-06-19T12:36:53;42.38;;;9.00;;
18752;SDS011;9505;50.882;5.350;2023-06-19T12:39:19;45.35;;;8.73;;
18752;SDS011;9505;50.882;5.350;2023-06-19T12:41:45;52.35;;;9.40;;
18752;SDS011;9505;50.882;5.350;2023-06-19T12:44:11;51.42;;;9.48;;
18752;SDS011;9505;50.882;5.350;2023-06-19T12:46:37;39.08;;;8.10;;
18752;SDS011;9505;50.882;5.350;2023-06-19T12:49:03;26.67;;;6.35;;
18752;SDS011;9505;50.882;5.350;2023-06-19T12:51:29;44.88;;;8.43;;
18752;SDS011;9505;50.882;5.350;2023-06-19T12:53:55;53.58;;;10.52;;
18752;SDS011;9505;50.882;5.350;2023-06-19T12:56:20;55.95;;;10.38;;
18752;SDS011;9505;50.882;5.350;2023-06-19T12:58:46;28.45;;;6.78;;
18752;SDS011;9505;50.882;5.350;2023-06-19T13:01:12;42.13;;;8.63;;
18752;SDS011;9505;50.882;5.350;2023-06-19T13:03:37;52.38;;;10.35;;
18752;SDS011;9505;50.882;5.350;2023-06-19T13:06:03;49.00;;;9.45;;
18752;SDS011;9505;50.882;5.350;2023-06-19T13:08:28;36.47;;;8.50;;
18752;SDS011;9505;50.882;5.350;2023-06-19T13:10:54;46.28;;;8.80;;
18752;SDS011;9505;50.882;5.350;2023-06-19T13:13:20;52.75;;;10.10;;
18752;SDS011;9505;50.882;5.350;2023-06-19T13:15:45;57.72;;;9.88;;
18752;SDS011;9505;50.882;5.350;2023-06-19T13:18:11;28.45;;;6.63;;
18752;SDS011;9505;50.882;5.350;2023-06-19T13:20:36;47.53;;;9.20;;
18752;SDS011;9505;50.882;5.350;2023-06-19T13:23:02;53.03;;;9.90;;
18752;SDS011;9505;50.882;5.350;2023-06-19T13:25:28;38.30;;;7.90;;
18752;SDS011;9505;50.882;5.350;2023-06-19T13:27:53;30.20;;;6.95;;
18752;SDS011;9505;50.882;5.350;2023-06-19T13:30:19;45.60;;;8.50;;
18752;SDS011;9505;50.882;5.350;2023-06-19T13:32:44;54.03;;;9.48;;
18752;SDS011;9505;50.882;5.350;2023-06-19T13:35:10;45.08;;;8.63;;
18752;SDS011;9505;50.882;5.350;2023-06-19T13:37:36;30.10;;;6.45;;
18752;SDS011;9505;50.882;5.350;2023-06-19T13:40:06;30.20;;;6.55;;
18752;SDS011;9505;50.882;5.350;2023-06-19T13:42:32;64.82;;;10.75;;
18752;SDS011;9505;50.882;5.350;2023-06-19T13:45:00;56.72;;;10.30;;
18752;SDS011;9505;50.882;5.350;2023-06-19T13:47:26;44.35;;;8.52;;
18752;SDS011;9505;50.882;5.350;2023-06-19T13:49:52;31.63;;;7.03;;
18752;SDS011;9505;50.882;5.350;2023-06-19T13:52:18;45.08;;;8.43;;
18752;SDS011;9505;50.882;5.350;2023-06-19T13:54:44;56.83;;;10.00;;
18752;SDS011;9505;50.882;5.350;2023-06-19T13:57:09;46.05;;;8.68;;
18752;SDS011;9505;50.882;5.350;2023-06-19T13:59:35;31.90;;;6.40;;
18752;SDS011;9505;50.882;5.350;2023-06-19T14:02:01;46.05;;;8.40;;
18752;SDS011;9505;50.882;5.350;2023-06-19T14:04:27;49.00;;;9.27;;
18752;SDS011;9505;50.882;5.350;2023-06-19T14:06:52;43.33;;;8.85;;
18752;SDS011;9505;50.882;5.350;2023-06-19T14:09:19;26.83;;;6.40;;
18752;SDS011;9505;50.882;5.350;2023-06-19T14:11:45;35.70;;;7.30;;
18752;SDS011;9505;50.882;5.350;2023-06-19T14:14:11;55.10;;;10.40;;
18752;SDS011;9505;50.882;5.350;2023-06-19T14:16:37;47.03;;;8.55;;
18752;SDS011;9505;50.882;5.350;2023-06-19T14:19:02;24.42;;;5.95;;
18752;SDS011;9505;50.882;5.350;2023-06-19T14:21:28;48.42;;;8.38;;
18752;SDS011;9505;50.882;5.350;2023-06-19T14:23:54;50.88;;;9.63;;
18752;SDS011;9505;50.882;5.350;2023-06-19T14:26:19;45.90;;;8.88;;
18752;SDS011;9505;50.882;5.350;2023-06-19T14:28:46;27.65;;;6.35;;
18752;SDS011;9505;50.882;5.350;2023-06-19T14:31:11;36.47;;;7.60;;
18752;SDS011;9505;50.882;5.350;2023-06-19T14:33:37;56.78;;;10.35;;
18752;SDS011;9505;50.882;5.350;2023-06-19T14:36:03;43.10;;;8.52;;
18752;SDS011;9505;50.882;5.350;2023-06-19T14:38:29;32.80;;;6.30;;
18752;SDS011;9505;50.882;5.350;2023-06-19T14:40:59;28.63;;;6.10;;
18752;SDS011;9505;50.882;5.350;2023-06-19T14:43:26;49.75;;;9.52;;
18752;SDS011;9505;50.882;5.350;2023-06-19T14:45:52;59.25;;;10.75;;
18752;SDS011;9505;50.882;5.350;2023-06-19T14:48:17;37.75;;;7.57;;
18752;SDS011;9505;50.882;5.350;2023-06-19T14:50:43;31.23;;;6.78;;
18752;SDS011;9505;50.882;5.350;2023-06-19T14:53:09;43.53;;;7.93;;